Atlantic, Maine
Current Conditions -  °F | °C
As of 7:35 AM on Sunday 25 Jan 2015 (Local Time) from KBHB Reporting Station
Scattered Clouds Scattered Clouds  
Wind Chill: 23°   Ceiling: Unl
Heat Index: 28°   Visibility: 10mi
Dew Point: 28°   Wind: 5mph
Humidity: 100%   Direction: 270°W
Pressure: 29.32"   Gusts: NA
Location:  44.1716°N, 68.4245°W
Report Text: KBHB 251235Z 27004KT 10SM SCT090 M02/M02 A2932 RMK AO1
Loading
Personal Weather Stations






























Interactive Weather Map New forecast layout! Learn more

10-Day Weather Forecast

Advertisements
Track Severe Weather on mobile